createdAt,value
2019-03-19T00:02:26.307Z,84.00
2019-03-19T00:05:00.317Z,83.70
2019-03-19T00:07:33.389Z,84.60
2019-03-19T00:10:06.987Z,84.70
2019-03-19T00:12:40.867Z,83.30
2019-03-19T00:15:14.008Z,84.90
2019-03-19T00:17:46.976Z,85.00
2019-03-19T00:20:20.168Z,83.80
2019-03-19T00:22:53.247Z,82.30
2019-03-19T00:25:30.223Z,81.70
2019-03-19T00:28:00.606Z,82.00
2019-03-19T00:30:33.688Z,82.40
2019-03-19T00:33:06.733Z,83.70
2019-03-19T00:35:41.948Z,81.30
2019-03-19T00:38:14.688Z,81.10
2019-03-19T00:40:47.787Z,81.20
2019-03-19T00:43:20.708Z,82.80
2019-03-19T00:45:53.809Z,83.50
2019-03-19T00:48:26.868Z,81.50
2019-03-19T00:51:00.051Z,82.90
2019-03-19T00:53:33.147Z,80.50
2019-03-19T00:56:06.632Z,83.30
2019-03-19T00:58:39.707Z,83.80
2019-03-19T01:01:12.711Z,84.70
2019-03-19T01:03:45.627Z,83.70
2019-03-19T01:06:18.527Z,82.80
2019-03-19T01:08:51.789Z,85.30
2019-03-19T01:11:24.687Z,85.20
2019-03-19T01:13:57.708Z,85.80
2019-03-19T01:16:30.787Z,86.80
2019-03-19T01:19:03.807Z,87.40
2019-03-19T01:21:37.575Z,86.40
2019-03-19T01:24:10.535Z,85.90
2019-03-19T01:26:43.609Z,85.40
2019-03-19T01:29:17.107Z,84.80
2019-03-19T01:31:50.787Z,84.40
2019-03-19T01:34:23.807Z,85.00
2019-03-19T01:36:56.748Z,84.80
2019-03-19T01:39:29.687Z,85.40
2019-03-19T01:42:05.110Z,87.00
2019-03-19T01:44:38.110Z,87.90
2019-03-19T01:47:10.907Z,83.30
2019-03-19T01:49:44.387Z,84.30
2019-03-19T01:52:17.647Z,84.00
2019-03-19T01:54:50.511Z,82.80
2019-03-19T01:57:23.629Z,83.90
2019-03-19T01:59:56.607Z,83.40
2019-03-19T02:02:29.689Z,85.60
2019-03-19T02:05:02.775Z,84.90
2019-03-19T02:07:35.667Z,84.70
2019-03-19T02:10:08.947Z,84.40
2019-03-19T02:12:41.911Z,82.60
2019-03-19T02:15:14.870Z,82.90
2019-03-19T02:17:47.812Z,83.40
2019-03-19T02:20:21.291Z,84.60
2019-03-19T02:22:54.608Z,84.90
2019-03-19T02:25:27.647Z,85.00
2019-03-19T02:28:01.007Z,85.30
2019-03-19T02:30:34.049Z,88.30
2019-03-19T02:33:07.069Z,88.20
2019-03-19T02:35:40.709Z,88.60
2019-03-19T02:38:14.358Z,84.10
2019-03-19T02:40:47.388Z,85.00
2019-03-19T02:43:22.799Z,85.20
2019-03-19T02:45:56.069Z,85.20
2019-03-19T02:48:29.029Z,85.80
2019-03-19T02:51:01.848Z,85.60
2019-03-19T02:53:34.908Z,85.90
2019-03-19T02:56:08.049Z,85.90
2019-03-19T02:58:41.068Z,84.60
2019-03-19T03:01:14.775Z,84.10
2019-03-19T03:03:47.709Z,85.60
2019-03-19T03:06:20.707Z,85.60
2019-03-19T03:08:53.789Z,86.00
2019-03-19T03:11:26.669Z,87.90
2019-03-19T03:13:59.687Z,86.90
2019-03-19T03:16:32.807Z,87.40
2019-03-19T03:19:06.029Z,87.50
2019-03-19T03:21:40.614Z,88.10
2019-03-19T03:24:14.108Z,86.00
2019-03-19T03:26:48.786Z,87.90
2019-03-19T03:29:21.930Z,85.40
2019-03-19T03:31:54.917Z,87.30
2019-03-19T03:34:27.888Z,88.40
2019-03-19T03:37:01.310Z,86.10
2019-03-19T03:39:34.927Z,84.60
2019-03-19T03:42:08.049Z,84.80
2019-03-19T03:44:41.048Z,85.00
2019-03-19T03:47:14.268Z,84.70
2019-03-19T03:49:47.144Z,85.70
2019-03-19T03:52:20.248Z,84.60
2019-03-19T03:54:53.809Z,86.90
2019-03-19T03:57:26.712Z,85.00
2019-03-19T04:00:00.007Z,83.70
2019-03-19T04:02:33.389Z,81.10
2019-03-19T04:05:07.969Z,82.00
2019-03-19T04:07:41.070Z,83.80
2019-03-19T04:10:14.094Z,80.80
2019-03-19T04:12:46.936Z,84.20
2019-03-19T04:15:20.028Z,84.60
2019-03-19T04:17:52.784Z,83.20
2019-03-19T04:20:25.707Z,85.80
2019-03-19T04:22:59.407Z,86.00
2019-03-19T04:25:32.391Z,86.70
2019-03-19T04:28:05.393Z,86.30
2019-03-19T04:30:38.971Z,87.30
2019-03-19T04:33:11.790Z,87.80
2019-03-19T04:35:44.850Z,88.10
2019-03-19T04:38:17.814Z,86.70
2019-03-19T04:40:50.868Z,86.70
2019-03-19T04:43:24.068Z,85.60
2019-03-19T04:45:56.927Z,85.20
2019-03-19T04:48:32.028Z,84.70
2019-03-19T04:51:05.195Z,85.20
2019-03-19T04:53:38.229Z,85.60
2019-03-19T04:56:11.095Z,84.50
2019-03-19T04:58:43.909Z,86.20
2019-03-19T05:01:17.016Z,82.90
2019-03-19T05:03:49.812Z,86.00
2019-03-19T05:06:23.170Z,83.70
2019-03-19T05:08:56.647Z,83.00
2019-03-19T05:11:29.567Z,83.30
2019-03-19T05:14:02.545Z,84.70
2019-03-19T05:16:35.448Z,85.00
2019-03-19T05:19:08.488Z,87.30
2019-03-19T05:21:41.547Z,86.80
2019-03-19T05:24:14.708Z,85.70
2019-03-19T05:26:47.788Z,84.50
2019-03-19T05:29:20.712Z,85.00
2019-03-19T05:31:53.827Z,86.00
2019-03-19T05:34:26.969Z,86.10
2019-03-19T05:36:59.870Z,86.00
2019-03-19T05:39:33.007Z,85.30
2019-03-19T05:42:05.907Z,85.50
2019-03-19T05:44:40.207Z,85.90
2019-03-19T05:47:13.087Z,85.30
2019-03-19T05:49:46.227Z,85.00
2019-03-19T05:52:19.216Z,84.80
2019-03-19T05:54:52.087Z,84.40
2019-03-19T05:57:25.227Z,83.20
2019-03-19T05:59:58.169Z,83.90
2019-03-19T06:02:31.628Z,83.80
2019-03-19T06:05:04.507Z,83.40
2019-03-19T06:07:37.668Z,83.90
2019-03-19T06:10:10.647Z,83.20
2019-03-19T06:12:43.727Z,85.20
2019-03-19T06:15:16.769Z,84.10
2019-03-19T06:17:49.755Z,84.40
2019-03-19T06:20:22.739Z,83.50
2019-03-19T06:22:55.760Z,82.70
2019-03-19T06:25:28.676Z,83.80
2019-03-19T06:28:01.628Z,82.30
2019-03-19T06:30:34.651Z,82.40
2019-03-19T06:33:07.586Z,82.40
2019-03-19T06:35:40.870Z,83.00
2019-03-19T06:38:14.055Z,82.90
2019-03-19T06:40:47.069Z,83.40
2019-03-19T06:43:20.527Z,84.80
2019-03-19T06:45:53.567Z,84.30
2019-03-19T06:48:26.968Z,83.70
2019-03-19T06:51:00.493Z,81.90
2019-03-19T06:53:33.795Z,84.70
2019-03-19T06:56:06.676Z,84.70
2019-03-19T06:58:39.828Z,84.70
2019-03-19T07:01:12.967Z,85.90
2019-03-19T07:03:45.829Z,85.50
2019-03-19T07:06:18.767Z,83.90
2019-03-19T07:08:51.987Z,83.50
2019-03-19T07:11:25.387Z,82.70
2019-03-19T07:13:58.396Z,82.00
2019-03-19T07:16:31.686Z,81.20
2019-03-19T07:19:04.728Z,78.90
2019-03-19T07:21:37.830Z,79.10
2019-03-19T07:24:11.107Z,77.60
2019-03-19T07:26:45.007Z,78.00
2019-03-19T07:29:18.207Z,76.10
2019-03-19T07:31:51.387Z,71.80
2019-03-19T07:34:24.307Z,74.00
2019-03-19T07:36:57.307Z,76.50
2019-03-19T07:39:30.567Z,75.70
2019-03-19T07:42:03.487Z,77.30
2019-03-19T07:44:36.748Z,75.30
2019-03-19T07:47:09.748Z,79.90
2019-03-19T07:49:42.687Z,80.00
2019-03-19T07:52:15.687Z,80.70
2019-03-19T07:54:49.167Z,81.90
2019-03-19T07:57:22.307Z,81.30
2019-03-19T07:59:55.228Z,79.80
2019-03-19T08:02:28.291Z,81.60
2019-03-19T08:05:01.434Z,78.30
2019-03-19T08:07:34.612Z,80.70
2019-03-19T08:10:07.753Z,82.00
2019-03-19T08:12:41.051Z,85.30
2019-03-19T08:15:14.202Z,81.70
2019-03-19T08:17:47.252Z,79.50
2019-03-19T08:20:20.111Z,78.30
2019-03-19T08:22:53.816Z,77.10
2019-03-19T08:25:26.808Z,83.20
2019-03-19T08:27:59.787Z,80.50
2019-03-19T08:30:32.727Z,74.40
2019-03-19T08:33:05.731Z,73.90
2019-03-19T08:35:38.637Z,76.20
2019-03-19T08:38:11.907Z,72.80
2019-03-19T08:40:44.830Z,76.80
2019-03-19T08:43:20.297Z,73.00
2019-03-19T08:45:52.917Z,70.00
2019-03-19T08:48:25.909Z,73.90
2019-03-19T08:50:59.009Z,72.70
2019-03-19T08:53:32.099Z,71.70
2019-03-19T08:56:05.193Z,72.70
2019-03-19T08:58:38.593Z,74.70
2019-03-19T09:01:11.910Z,74.50
2019-03-19T09:03:45.430Z,70.40
2019-03-19T09:06:18.369Z,71.60
2019-03-19T09:08:51.769Z,75.00
2019-03-19T09:11:25.009Z,77.70
2019-03-19T09:13:58.047Z,74.50
2019-03-19T09:16:30.973Z,70.90
2019-03-19T09:19:03.868Z,72.50
2019-03-19T09:21:36.988Z,73.90
2019-03-19T09:24:10.447Z,71.90
2019-03-19T09:26:43.267Z,71.40
2019-03-19T09:29:17.407Z,74.00
2019-03-19T09:31:51.087Z,74.80
2019-03-19T09:34:24.128Z,73.10
2019-03-19T09:36:57.850Z,71.20
2019-03-19T09:39:31.214Z,76.10
2019-03-19T09:42:04.128Z,69.30
2019-03-19T09:44:37.168Z,75.20
2019-03-19T09:47:10.669Z,75.40
2019-03-19T09:49:43.967Z,73.80
2019-03-19T09:52:17.108Z,72.40
2019-03-19T09:54:50.307Z,67.20
2019-03-19T09:57:23.487Z,69.50
2019-03-19T09:59:56.552Z,68.80
2019-03-19T10:02:29.728Z,68.00
2019-03-19T10:05:02.632Z,71.70
2019-03-19T10:07:35.628Z,69.00
2019-03-19T10:10:08.848Z,65.30
2019-03-19T10:12:42.188Z,69.20
2019-03-19T10:15:15.087Z,68.00
2019-03-19T10:17:47.948Z,68.60
2019-03-19T10:20:20.989Z,63.30
2019-03-19T10:22:54.269Z,67.50
2019-03-19T10:25:27.488Z,70.80
2019-03-19T10:28:00.388Z,65.90
2019-03-19T10:30:33.731Z,68.00
2019-03-19T10:33:06.847Z,68.70
2019-03-19T10:35:39.887Z,73.20
2019-03-19T10:38:13.311Z,72.40
2019-03-19T10:40:46.427Z,71.70
2019-03-19T10:43:20.868Z,73.80
2019-03-19T10:45:54.132Z,72.50
2019-03-19T10:48:28.848Z,74.80
2019-03-19T10:51:01.836Z,74.70
2019-03-19T10:53:35.607Z,74.80
2019-03-19T10:56:08.567Z,74.80
2019-03-19T10:58:41.676Z,75.10
2019-03-19T11:01:14.967Z,75.20
2019-03-19T11:03:48.511Z,77.80
2019-03-19T11:06:21.508Z,75.20
2019-03-19T11:08:55.000Z,76.50
2019-03-19T11:11:28.068Z,77.40
2019-03-19T11:14:01.088Z,79.80
2019-03-19T11:16:34.307Z,77.10
2019-03-19T11:19:07.427Z,76.30
2019-03-19T11:21:40.437Z,75.80
2019-03-19T11:24:13.470Z,75.20
2019-03-19T11:26:46.389Z,74.20
2019-03-19T11:29:19.391Z,76.60
2019-03-19T11:31:52.377Z,74.70
2019-03-19T11:34:26.197Z,74.60
2019-03-19T11:36:59.990Z,71.90
2019-03-19T11:39:35.871Z,70.40
2019-03-19T11:42:08.817Z,72.10
2019-03-19T11:44:42.990Z,71.70
2019-03-19T11:47:16.887Z,70.30
2019-03-19T11:49:49.820Z,72.00
2019-03-19T11:52:22.784Z,70.30
2019-03-19T11:54:55.930Z,67.60
2019-03-19T11:57:28.927Z,68.90
2019-03-19T12:00:10.735Z,72.00
2019-03-19T12:02:36.770Z,72.40
2019-03-19T12:05:09.784Z,75.90
2019-03-19T12:07:42.944Z,80.10
2019-03-19T12:10:16.404Z,77.30
2019-03-19T12:12:49.363Z,80.80
2019-03-19T12:15:22.205Z,83.50
2019-03-19T12:17:55.172Z,82.40
2019-03-19T12:20:28.505Z,83.70
2019-03-19T12:23:03.720Z,83.10
2019-03-19T12:25:36.625Z,77.40
2019-03-19T12:28:11.585Z,80.60
2019-03-19T12:30:44.504Z,80.10
2019-03-19T12:33:17.792Z,81.60
2019-03-19T12:35:50.705Z,78.30
2019-03-19T12:38:23.844Z,80.40
2019-03-19T12:40:56.884Z,80.70
2019-03-19T12:43:30.146Z,84.60
2019-03-19T12:46:02.914Z,81.70
2019-03-19T12:48:35.965Z,80.90
2019-03-19T12:51:08.772Z,80.10
2019-03-19T12:53:43.325Z,80.90
2019-03-19T12:56:16.544Z,82.30
2019-03-19T12:58:49.544Z,82.10
2019-03-19T13:01:22.940Z,83.00
2019-03-19T13:03:56.086Z,85.20
2019-03-19T13:06:28.980Z,88.30
2019-03-19T13:09:01.726Z,87.30
2019-03-19T13:11:34.484Z,91.60
2019-03-19T13:14:07.584Z,92.90
2019-03-19T13:16:42.797Z,94.20
2019-03-19T13:19:15.285Z,96.20
2019-03-19T13:21:48.125Z,95.90
2019-03-19T13:24:25.624Z,97.60
2019-03-19T13:26:58.566Z,97.50
2019-03-19T13:29:34.185Z,98.10
2019-03-19T13:32:07.305Z,96.80
2019-03-19T13:34:40.412Z,96.80
2019-03-19T13:37:13.184Z,95.80
2019-03-19T13:39:47.784Z,94.40
2019-03-19T13:42:20.640Z,96.80
2019-03-19T13:44:56.024Z,94.10
2019-03-19T13:47:29.064Z,95.00
2019-03-19T13:50:01.905Z,96.20
2019-03-19T13:52:34.844Z,95.90
2019-03-19T13:55:07.765Z,95.00
2019-03-19T13:57:40.912Z,97.10
2019-03-19T14:00:13.702Z,97.60
2019-03-19T14:02:48.427Z,97.30
2019-03-19T14:05:21.425Z,97.40
2019-03-19T14:07:54.524Z,96.00
2019-03-19T14:10:29.904Z,94.60
2019-03-19T14:13:02.942Z,95.00
2019-03-19T14:15:36.633Z,94.70
2019-03-19T14:18:09.844Z,94.90
2019-03-19T14:20:42.825Z,95.50
2019-03-19T14:23:15.712Z,96.20
2019-03-19T14:25:48.564Z,95.70
2019-03-19T14:28:21.608Z,95.30
2019-03-19T14:30:54.466Z,94.70
2019-03-19T14:33:27.329Z,95.60
2019-03-19T14:36:00.586Z,94.50
2019-03-19T14:38:33.546Z,93.20
2019-03-19T14:41:06.446Z,93.90
2019-03-19T14:43:39.595Z,93.40
2019-03-19T14:46:12.364Z,93.80
2019-03-19T14:48:47.384Z,94.30
2019-03-19T14:51:20.354Z,93.90
2019-03-19T14:53:55.866Z,90.90
2019-03-19T14:56:29.146Z,92.10
2019-03-19T14:59:02.450Z,91.20
2019-03-19T15:01:36.927Z,90.90
2019-03-19T15:04:09.755Z,92.10
2019-03-19T15:06:42.526Z,89.80
2019-03-19T15:09:15.770Z,94.70
2019-03-19T15:11:48.675Z,93.50
2019-03-19T15:14:22.149Z,94.10
2019-03-19T15:17:04.545Z,93.90
2019-03-19T15:19:29.647Z,94.10
2019-03-19T15:22:02.534Z,93.70
2019-03-19T15:24:35.747Z,94.20
2019-03-19T15:27:08.688Z,94.70
2019-03-19T15:29:41.590Z,94.20
2019-03-19T15:32:14.464Z,94.10
2019-03-19T15:34:47.427Z,94.20
2019-03-19T15:37:21.564Z,92.40
2019-03-19T15:39:54.324Z,91.20
2019-03-19T15:42:27.144Z,93.60
2019-03-19T15:45:01.044Z,93.80
2019-03-19T15:47:34.044Z,94.80
2019-03-19T15:50:07.024Z,95.20
2019-03-19T15:52:39.927Z,93.70
2019-03-19T15:55:12.727Z,92.40
2019-03-19T15:57:49.328Z,91.10
2019-03-19T16:00:21.933Z,90.80
2019-03-19T16:02:55.505Z,92.90
2019-03-19T16:05:28.424Z,91.80
2019-03-19T16:08:01.346Z,91.80
2019-03-19T16:10:34.406Z,91.60
2019-03-19T16:13:07.474Z,92.00
2019-03-19T16:15:40.448Z,91.70
2019-03-19T16:18:13.276Z,92.20
2019-03-19T16:20:49.247Z,91.60
2019-03-19T16:23:22.666Z,90.90
2019-03-19T16:25:56.401Z,91.60
2019-03-19T16:28:29.868Z,91.00
2019-03-19T16:31:02.770Z,91.20
2019-03-19T16:33:36.924Z,90.90
2019-03-19T16:36:10.332Z,90.30
2019-03-19T16:38:43.183Z,89.50
2019-03-19T16:41:16.393Z,89.70
2019-03-19T16:43:51.644Z,89.70
2019-03-19T16:46:24.585Z,90.90
2019-03-19T16:48:58.244Z,91.10
2019-03-19T16:51:31.505Z,92.30
2019-03-19T16:54:04.584Z,92.10
2019-03-19T16:56:37.745Z,92.30
2019-03-19T16:59:10.827Z,91.20
2019-03-19T17:01:43.684Z,92.70
2019-03-19T17:04:16.964Z,95.00
2019-03-19T17:06:50.564Z,94.70
2019-03-19T17:09:26.387Z,94.50
2019-03-19T17:12:01.587Z,94.60
2019-03-19T17:14:36.889Z,93.50
2019-03-19T17:17:10.108Z,93.10
2019-03-19T17:19:43.488Z,94.00
2019-03-19T17:22:17.187Z,94.80
2019-03-19T17:24:49.927Z,95.80
2019-03-19T17:27:24.827Z,95.40
2019-03-19T17:29:57.749Z,95.30
2019-03-19T17:32:30.732Z,94.80
2019-03-19T17:35:03.494Z,94.30
2019-03-19T17:37:37.246Z,95.00
2019-03-19T17:40:10.205Z,96.40
2019-03-19T17:42:43.069Z,96.50
2019-03-19T17:45:16.248Z,96.80
2019-03-19T17:47:49.046Z,97.00
2019-03-19T17:50:21.944Z,96.30
2019-03-19T17:52:55.050Z,95.40
2019-03-19T17:55:28.115Z,95.70
2019-03-19T17:58:01.044Z,95.10
2019-03-19T18:00:35.834Z,96.30
2019-03-19T18:03:08.596Z,96.80
2019-03-19T18:05:41.489Z,96.80
2019-03-19T18:08:14.436Z,96.80
2019-03-19T18:10:47.388Z,96.70
2019-03-19T18:13:20.184Z,97.00
2019-03-19T18:15:52.992Z,96.10
2019-03-19T18:18:25.992Z,94.90
2019-03-19T18:20:58.924Z,94.10
2019-03-19T18:23:31.979Z,94.50
2019-03-19T18:26:06.707Z,94.80
2019-03-19T18:28:39.888Z,96.00
2019-03-19T18:31:12.932Z,95.20
2019-03-19T18:33:45.844Z,95.60
2019-03-19T18:36:18.787Z,94.60
2019-03-19T18:38:51.623Z,95.00
2019-03-19T18:41:24.570Z,94.30
2019-03-19T18:43:58.645Z,93.50
2019-03-19T18:46:31.466Z,94.30
2019-03-19T18:49:04.325Z,92.80
2019-03-19T18:51:37.173Z,92.50
2019-03-19T18:54:12.004Z,93.20
2019-03-19T18:56:45.104Z,93.30
2019-03-19T18:59:17.944Z,92.30
2019-03-19T19:01:50.844Z,92.60
2019-03-19T19:04:23.784Z,90.90
2019-03-19T19:06:56.510Z,89.70
2019-03-19T19:09:29.424Z,90.40
2019-03-19T19:12:02.311Z,85.70
2019-03-19T19:14:35.385Z,90.70
2019-03-19T19:17:08.453Z,90.70
2019-03-19T19:19:41.409Z,88.70
2019-03-19T19:22:14.865Z,90.30
2019-03-19T19:24:47.952Z,90.90
2019-03-19T19:27:20.724Z,88.10
2019-03-19T19:29:53.846Z,88.50
2019-03-19T19:32:26.771Z,90.30
2019-03-19T19:35:00.170Z,89.70
2019-03-19T19:37:34.504Z,88.20
2019-03-19T19:40:07.464Z,88.90
2019-03-19T19:42:41.247Z,90.00
2019-03-19T19:45:14.184Z,89.10
2019-03-19T19:47:47.040Z,90.40
2019-03-19T19:50:20.072Z,88.90
2019-03-19T19:52:52.858Z,89.70
2019-03-19T19:55:25.904Z,90.50
2019-03-19T19:58:00.608Z,90.50
2019-03-19T20:00:34.188Z,90.90
2019-03-19T20:03:12.498Z,89.60
2019-03-19T20:05:43.064Z,87.80
2019-03-19T20:08:16.387Z,91.20
2019-03-19T20:10:51.347Z,90.60
2019-03-19T20:13:24.404Z,90.50
2019-03-19T20:15:57.305Z,90.40
2019-03-19T20:18:30.465Z,90.80
2019-03-19T20:21:03.255Z,91.10
2019-03-19T20:23:37.588Z,90.50
2019-03-19T20:26:10.564Z,90.90
2019-03-19T20:28:44.084Z,91.00
2019-03-19T20:31:17.632Z,90.50
2019-03-19T20:33:50.764Z,90.50
2019-03-19T20:36:23.629Z,91.70
2019-03-19T20:38:56.504Z,91.70
2019-03-19T20:41:29.505Z,91.40
2019-03-19T20:44:04.024Z,92.30
2019-03-19T20:46:36.791Z,92.00
2019-03-19T20:49:09.667Z,90.40
2019-03-19T20:51:42.605Z,87.60
2019-03-19T20:54:15.645Z,86.10
2019-03-19T20:56:48.452Z,88.40
2019-03-19T20:59:21.387Z,88.20
2019-03-19T21:01:54.285Z,88.30
2019-03-19T21:04:30.618Z,86.00
2019-03-19T21:07:02.040Z,87.40
2019-03-19T21:09:35.005Z,85.80
2019-03-19T21:12:08.045Z,86.20
2019-03-19T21:14:43.464Z,84.90
2019-03-19T21:17:16.305Z,85.30
2019-03-19T21:19:49.224Z,85.50
2019-03-19T21:22:22.071Z,85.60
2019-03-19T21:24:56.707Z,86.30
2019-03-19T21:27:29.935Z,84.90
2019-03-19T21:30:02.782Z,85.20
2019-03-19T21:32:35.789Z,83.50
2019-03-19T21:35:08.646Z,83.40
2019-03-19T21:37:41.407Z,85.40
2019-03-19T21:40:16.114Z,86.50
2019-03-19T21:42:48.987Z,86.80
2019-03-19T21:45:22.017Z,85.50
2019-03-19T21:47:54.845Z,84.30
2019-03-19T21:50:27.933Z,84.80
2019-03-19T21:53:01.262Z,83.90
2019-03-19T21:55:34.733Z,84.80
2019-03-19T21:58:08.480Z,84.20
2019-03-19T22:00:41.944Z,83.90
2019-03-19T22:03:14.825Z,80.10
2019-03-19T22:05:47.809Z,80.60
2019-03-19T22:08:20.887Z,81.60
2019-03-19T22:10:53.726Z,78.10
2019-03-19T22:13:27.252Z,81.30
2019-03-19T22:16:00.149Z,79.40
2019-03-19T22:18:33.491Z,80.10
2019-03-19T22:21:08.407Z,79.80
2019-03-19T22:23:41.152Z,80.70
2019-03-19T22:26:14.005Z,81.40
2019-03-19T22:28:46.885Z,81.60
2019-03-19T22:31:19.925Z,81.20
2019-03-19T22:33:52.824Z,77.70
2019-03-19T22:36:25.746Z,81.60
2019-03-19T22:38:58.585Z,83.20
2019-03-19T22:41:32.024Z,85.60
2019-03-19T22:44:05.295Z,84.00
2019-03-19T22:46:38.404Z,79.60
2019-03-19T22:49:11.675Z,78.00
2019-03-19T22:51:44.566Z,79.20
2019-03-19T22:54:17.444Z,80.90
2019-03-19T22:56:52.866Z,83.20
2019-03-19T22:59:26.367Z,82.60
2019-03-19T23:02:01.608Z,82.40
2019-03-19T23:04:34.486Z,82.00
2019-03-19T23:07:07.492Z,81.60
2019-03-19T23:09:40.465Z,81.60
2019-03-19T23:12:15.033Z,81.50
2019-03-19T23:14:48.325Z,82.60
2019-03-19T23:17:21.205Z,81.80
2019-03-19T23:19:54.201Z,84.00
2019-03-19T23:22:27.133Z,81.70
2019-03-19T23:25:00.006Z,80.70
2019-03-19T23:27:33.105Z,81.90
2019-03-19T23:30:05.897Z,82.50
2019-03-19T23:32:39.145Z,82.90
2019-03-19T23:35:12.133Z,81.70
2019-03-19T23:37:45.207Z,82.30
2019-03-19T23:40:18.180Z,83.00
2019-03-19T23:42:51.285Z,83.30
2019-03-19T23:45:24.228Z,84.80
2019-03-19T23:47:57.147Z,85.90
2019-03-19T23:50:30.085Z,86.70
2019-03-19T23:53:03.007Z,87.20
2019-03-19T23:55:35.925Z,87.40
2019-03-19T23:58:08.924Z,88.90
